Time;durP1;ratioP1;P1;durP2;ratioP2;P2;SDS_P1;SDS_P2;PMS_P1;PMS_P2;Temp;Humidity;BMP_temperature;BMP_pressure;BME280_temperature;BME280_humidity;BME280_pressure;Samples;Min_cycle;Max_cycle;Signal;HPM_P1;HPM_P2
2022/04/16 00:01:12;;;;;;;;;13.25;12.25;;;;;17.57;38.57;102129.16;5000834;28;45227;-60
2022/04/16 00:03:38;;;;;;;;;11.75;10.75;;;;;17.53;38.65;102129.22;5007750;28;45240;-59
2022/04/16 00:06:03;;;;;;;;;11.00;11.00;;;;;17.51;38.65;102127.53;5007049;28;45467;-60
2022/04/16 00:08:30;;;;;;;;;13.50;10.25;;;;;17.47;38.87;102126.72;5000682;28;45407;-58
2022/04/16 00:10:56;;;;;;;;;10.75;10.75;;;;;17.45;38.78;102128.50;4999278;28;45433;-58
2022/04/16 00:13:23;;;;;;;;;16.00;11.25;;;;;17.42;39.01;102131.25;5000594;28;45316;-59
2022/04/16 00:15:49;;;;;;;;;9.75;9.00;;;;;17.37;38.94;102128.66;5000534;28;45357;-59
2022/04/16 00:18:15;;;;;;;;;16.25;13.25;;;;;17.34;38.86;102125.19;5000439;28;46195;-59
2022/04/16 00:20:41;;;;;;;;;14.50;14.00;;;;;17.31;38.98;102134.09;5016692;28;45179;-58
2022/04/16 00:23:07;;;;;;;;;14.75;14.00;;;;;17.29;39.17;102129.72;5000664;28;45899;-58
2022/04/16 00:25:34;;;;;;;;;12.50;11.00;;;;;17.27;39.13;102128.88;5000263;28;45177;-59
2022/04/16 00:28:00;;;;;;;;;11.75;10.75;;;;;17.22;39.17;102126.34;5007833;28;46621;-58
2022/04/16 00:30:26;;;;;;;;;9.75;9.75;;;;;17.16;39.15;102119.34;5016365;28;45502;-58
2022/04/16 00:32:57;;;;;;;;;10.50;9.50;;;;;17.17;39.42;102117.59;5006862;28;45452;-58
2022/04/16 00:35:23;;;;;;;;;10.25;8.25;;;;;17.16;39.19;102119.34;5007330;28;45249;-58
2022/04/16 00:37:49;;;;;;;;;10.00;8.00;;;;;17.13;39.13;102127.41;5004473;28;46293;-58
2022/04/16 00:40:14;;;;;;;;;8.50;8.50;;;;;17.10;39.64;102119.47;5011807;28;45242;-59
2022/04/16 00:42:45;;;;;;;;;8.00;7.50;;;;;17.08;39.53;102121.31;5013675;28;45279;-58
2022/04/16 00:45:12;;;;;;;;;12.75;10.25;;;;;17.04;39.43;102119.59;5000195;28;45191;-59
2022/04/16 00:47:37;;;;;;;;;9.25;8.50;;;;;17.03;39.56;102124.03;5000062;28;45258;-58
2022/04/16 00:50:10;;;;;;;;;9.00;9.00;;;;;17.01;39.42;102127.63;4999982;28;45381;-59
2022/04/16 00:52:37;;;;;;;;;8.00;8.00;;;;;16.98;39.54;102117.94;5000651;28;45234;-58
2022/04/16 00:55:04;;;;;;;;;10.00;10.00;;;;;16.96;39.41;102121.53;4999860;28;45317;-58
2022/04/16 00:57:30;;;;;;;;;9.75;8.50;;;;;16.93;39.49;102110.97;5000147;28;46066;-58
2022/04/16 00:59:55;;;;;;;;;8.00;8.00;;;;;16.92;39.65;102110.09;4999591;28;45346;-58
2022/04/16 01:02:21;;;;;;;;;11.75;9.50;;;;;16.86;39.70;102104.88;5000380;28;45717;-59
2022/04/16 01:04:47;;;;;;;;;10.00;8.75;;;;;16.85;39.52;102106.63;4999724;28;45342;-59
2022/04/16 01:07:12;;;;;;;;;10.25;9.50;;;;;16.83;39.82;102104.91;5009474;28;45984;-58
2022/04/16 01:09:38;;;;;;;;;8.00;8.00;;;;;16.81;39.60;102112.91;5016836;28;45313;-58
2022/04/16 01:12:04;;;;;;;;;10.50;10.50;;;;;16.79;39.77;102098.81;5000265;28;45329;-58
2022/04/16 01:14:29;;;;;;;;;9.50;8.00;;;;;16.77;39.82;102102.41;4999548;28;45349;-58
2022/04/16 01:16:56;;;;;;;;;10.75;9.75;;;;;16.74;40.12;102105.94;4998589;28;45375;-59
2022/04/16 01:19:23;;;;;;;;;11.25;11.25;;;;;16.72;39.90;102099.81;5006615;28;45383;-58
2022/04/16 01:21:50;;;;;;;;;11.00;9.00;;;;;16.69;40.01;102099.84;5010349;28;45179;-58
2022/04/16 01:24:15;;;;;;;;;15.00;11.50;;;;;16.69;40.32;102105.16;5006440;28;45435;-59
2022/04/16 01:26:44;;;;;;;;;11.50;11.50;;;;;16.67;40.01;102096.38;5023041;28;45311;-59
2022/04/16 01:29:10;;;;;;;;;8.75;7.25;;;;;16.64;40.03;102099.97;5007273;28;45312;-59
2022/04/16 01:31:35;;;;;;;;;10.75;10.75;;;;;16.65;40.07;102104.34;5003444;28;45247;-59
2022/04/16 01:34:01;;;;;;;;;12.25;9.00;;;;;16.61;40.45;102105.31;5003001;28;45234;-59
2022/04/16 01:36:31;;;;;;;;;8.00;7.25;;;;;16.61;40.30;102094.69;5003403;28;45275;-59
2022/04/16 01:38:57;;;;;;;;;11.25;9.50;;;;;16.58;40.47;102105.38;5006250;28;45361;-58
2022/04/16 01:41:25;;;;;;;;;10.75;9.25;;;;;16.53;40.24;102096.63;5003021;28;45369;-58
2022/04/16 01:43:51;;;;;;;;;10.50;10.50;;;;;16.53;40.43;102100.13;5002712;28;45246;-58
2022/04/16 01:46:17;;;;;;;;;15.25;11.25;;;;;16.54;40.59;102106.31;5002920;28;45930;-58
2022/04/16 01:48:43;;;;;;;;;11.25;11.25;;;;;16.52;40.68;102106.34;5002774;28;45294;-58
2022/04/16 01:51:08;;;;;;;;;11.25;11.25;;;;;16.50;40.65;102110.81;5003078;28;45396;-58
2022/04/16 01:53:34;;;;;;;;;9.50;9.50;;;;;16.50;40.84;102112.56;5002928;28;45379;-58
2022/04/16 01:56:00;;;;;;;;;10.50;10.50;;;;;16.47;40.88;102108.19;5002699;28;46986;-58
2022/04/16 01:58:25;;;;;;;;;13.00;11.75;;;;;16.47;40.67;102116.16;5002303;28;45427;-57
2022/04/16 02:00:51;;;;;;;;;11.00;11.00;;;;;16.44;40.66;102110.91;5002863;28;45386;-58
2022/04/16 02:03:16;;;;;;;;;13.00;11.00;;;;;16.43;40.81;102114.47;5002549;28;45439;-58
2022/04/16 02:05:42;;;;;;;;;15.75;12.50;;;;;16.42;40.78;102123.31;5002706;28;46494;-58
2022/04/16 02:08:07;;;;;;;;;11.00;9.25;;;;;16.40;40.65;102120.69;5002511;28;45312;-58
2022/04/16 02:10:34;;;;;;;;;10.00;10.00;;;;;16.39;40.57;102118.94;5002857;28;45325;-58
2022/04/16 02:13:00;;;;;;;;;14.00;12.25;;;;;16.38;40.71;102125.16;5002385;28;45326;-58
2022/04/16 02:15:26;;;;;;;;;10.75;9.50;;;;;16.37;41.07;102117.22;5002478;28;46255;-58
2022/04/16 02:17:53;;;;;;;;;14.00;12.75;;;;;16.35;40.80;102119.91;5002292;28;45163;-58
2022/04/16 02:20:18;;;;;;;;;11.00;9.75;;;;;16.32;40.98;102109.34;5017263;28;45439;-58
2022/04/16 02:22:46;;;;;;;;;16.00;15.25;;;;;16.31;40.95;102115.53;5008977;28;45312;-58
2022/04/16 02:25:13;;;;;;;;;12.00;10.75;;;;;16.30;40.97;102108.50;5020944;28;47957;-58
2022/04/16 02:27:39;;;;;;;;;13.50;11.75;;;;;16.28;40.96;102118.25;5017374;28;45453;-58
2022/04/16 02:30:09;;;;;;;;;11.00;10.75;;;;;16.27;41.27;102121.78;5004576;28;45491;-58
2022/04/16 02:32:40;;;;;;;;;13.25;12.75;;;;;16.24;41.16;102119.22;5002302;28;45400;-58
2022/04/16 02:35:07;;;;;;;;;12.75;11.25;;;;;16.19;41.19;102113.97;5001544;28;46423;-58
2022/04/16 02:37:32;;;;;;;;;15.75;12.25;;;;;16.19;41.04;102118.41;5006056;28;45366;-58
2022/04/16 02:39:57;;;;;;;;;12.75;11.00;;;;;16.16;41.14;102118.44;5001967;28;45439;-58
2022/04/16 02:42:23;;;;;;;;;11.50;11.25;;;;;16.12;41.29;102120.25;5002287;28;45206;-58
2022/04/16 02:47:32;;;;;;;;;15.00;14.00;;;;;16.08;41.65;102129.16;5009002;28;45292;-58
2022/04/16 02:49:57;;;;;;;;;18.50;13.50;;;;;16.05;41.35;102129.19;5008621;28;45369;-58
2022/04/16 02:52:23;;;;;;;;;16.25;15.00;;;;;15.98;41.80;102117.81;5002158;28;45346;-58
2022/04/16 02:54:48;;;;;;;;;17.75;15.75;;;;;16.00;41.47;102120.44;5001836;28;46092;-58
2022/04/16 02:57:14;;;;;;;;;18.75;12.50;;;;;15.97;41.86;102126.66;5008314;28;45241;-58
2022/04/16 02:59:40;;;;;;;;;22.00;18.00;;;;;15.94;41.92;102121.44;5021357;28;45411;-58
2022/04/16 03:02:05;;;;;;;;;20.75;14.25;;;;;15.91;41.80;102113.50;5001986;28;45361;-58
2022/04/16 03:04:32;;;;;;;;;15.75;13.25;;;;;15.88;41.85;102113.56;5001487;28;45239;-58
2022/04/16 03:06:58;;;;;;;;;13.75;13.75;;;;;15.85;41.60;102114.47;5001821;28;45364;-58
2022/04/16 03:09:23;;;;;;;;;16.50;14.25;;;;;15.84;41.70;102117.16;5001592;28;45462;-58
2022/04/16 03:11:48;;;;;;;;;15.50;13.25;;;;;15.79;42.01;102111.03;5001654;28;45329;-58
2022/04/16 03:19:43;;;;;;;;;13.00;10.75;;;;;15.69;42.15;102113.78;5009344;28;45484;-58
2022/04/16 03:22:10;;;;;;;;;18.75;13.75;;;;;15.65;41.82;102117.38;5008950;28;45247;-58
2022/04/16 03:24:35;;;;;;;;;18.25;14.75;;;;;15.62;42.13;102114.75;4999147;28;46284;-58
2022/04/16 03:27:02;;;;;;;;;16.25;12.25;;;;;15.59;42.14;102117.47;5000895;28;45215;-58
2022/04/16 03:29:27;;;;;;;;;13.50;13.50;;;;;15.52;42.21;102111.38;5003307;28;45605;-57
2022/04/16 03:31:52;;;;;;;;;13.75;12.00;;;;;15.51;42.01;102120.22;5000300;28;45249;-58
2022/04/16 03:34:18;;;;;;;;;19.00;15.50;;;;;15.46;42.13;102111.44;5017397;28;47227;-58
2022/04/16 03:36:43;;;;;;;;;18.75;16.75;;;;;15.43;42.60;102107.06;5020983;28;45363;-58
2022/04/16 03:39:09;;;;;;;;;13.75;13.50;;;;;15.41;42.51;102114.16;5003298;28;45221;-58
2022/04/16 03:41:34;;;;;;;;;19.00;14.75;;;;;15.39;42.08;102113.28;5010705;28;45528;-58
2022/04/16 03:44:00;;;;;;;;;21.00;18.25;;;;;15.35;42.24;102111.56;5016367;28;46124;-58
2022/04/16 03:46:25;;;;;;;;;20.50;17.00;;;;;15.31;42.65;102107.22;4999614;28;45387;-58
2022/04/16 03:48:50;;;;;;;;;20.00;16.00;;;;;15.28;42.59;102113.44;5001047;28;45340;-58
2022/04/16 03:51:16;;;;;;;;;19.50;15.00;;;;;15.26;42.78;102112.56;5001107;28;45541;-57
2022/04/16 03:53:41;;;;;;;;;9.25;9.25;;;;;15.25;42.38;102115.25;4999599;28;47904;-58
2022/04/16 04:01:34;;;;;;;;;14.00;14.00;;;;;15.17;42.87;102109.13;5004773;28;45222;-58
2022/04/16 04:03:59;;;;;;;;;17.00;13.75;;;;;15.15;42.37;102117.09;5008685;28;45548;-57
2022/04/16 04:06:25;;;;;;;;;12.75;12.75;;;;;15.13;42.73;102112.72;5006178;28;45426;-57
2022/04/16 04:08:50;;;;;;;;;17.25;14.00;;;;;15.08;42.86;102108.38;5016149;28;45424;-57
2022/04/16 04:11:15;;;;;;;;;18.50;17.25;;;;;15.08;42.54;102120.72;5013840;28;45276;-57
2022/04/16 04:13:41;;;;;;;;;20.25;16.25;;;;;15.06;43.01;102114.56;5000450;28;47087;-57
2022/04/16 04:16:06;;;;;;;;;18.50;16.00;;;;;15.04;42.86;102125.19;5015776;28;45385;-58
2022/04/16 04:18:31;;;;;;;;;22.00;17.50;;;;;15.01;42.71;102124.34;5000949;28;45345;-58
2022/04/16 04:20:57;;;;;;;;;21.50;18.25;;;;;14.99;42.96;102120.81;5020303;28;45246;-58
2022/04/16 04:23:22;;;;;;;;;19.25;17.25;;;;;14.96;42.61;102121.72;5011269;28;46145;-57
2022/04/16 04:25:49;;;;;;;;;18.25;17.00;;;;;14.95;42.49;102119.97;5000557;28;45332;-58
2022/04/16 04:28:14;;;;;;;;;31.00;23.75;;;;;14.92;43.10;102123.53;5000449;28;45479;-57
2022/04/16 04:30:39;;;;;;;;;24.25;19.25;;;;;14.91;43.23;102128.84;5002154;28;45392;-57
2022/04/16 04:33:05;;;;;;;;;16.50;16.50;;;;;14.87;42.81;102130.66;5000604;28;45825;-57
2022/04/16 04:35:30;;;;;;;;;20.00;17.75;;;;;14.84;43.22;102125.41;5000442;28;45300;-58
2022/04/16 04:37:56;;;;;;;;;21.00;18.75;;;;;14.83;43.04;102128.94;5003199;28;45270;-57
2022/04/16 04:40:21;;;;;;;;;20.75;18.50;;;;;14.80;43.03;102139.53;5000053;28;45538;-57
2022/04/16 04:42:47;;;;;;;;;19.50;15.50;;;;;14.76;42.83;102132.53;5000236;28;45330;-58
2022/04/16 04:45:14;;;;;;;;;14.50;13.00;;;;;14.75;43.16;102136.06;4998995;28;45267;-58
2022/04/16 04:47:40;;;;;;;;;19.25;19.00;;;;;14.71;43.08;102129.03;5000492;28;45242;-57
2022/04/16 04:50:06;;;;;;;;;21.25;17.50;;;;;14.69;43.02;102133.47;5000044;28;45421;-58
2022/04/16 04:52:34;;;;;;;;;16.75;16.75;;;;;14.66;43.31;102137.00;5000353;28;46201;-58
2022/04/16 04:55:00;;;;;;;;;20.50;18.75;;;;;14.63;43.48;102137.88;4999985;28;45423;-57
2022/04/16 04:57:27;;;;;;;;;21.25;17.75;;;;;14.61;43.00;102137.00;4999247;28;45540;-57
2022/04/16 04:59:52;;;;;;;;;24.75;21.75;;;;;14.60;42.95;102137.03;4999936;28;45158;-58
2022/04/16 05:02:18;;;;;;;;;22.25;16.75;;;;;14.56;43.41;102140.59;5008938;28;46823;-57
2022/04/16 05:04:43;;;;;;;;;22.25;20.50;;;;;14.54;42.91;102139.72;5006439;28;45483;-58
2022/04/16 05:07:10;;;;;;;;;19.75;18.25;;;;;14.50;43.12;102135.38;5018776;28;45214;-57
2022/04/16 05:09:36;;;;;;;;;22.50;17.75;;;;;14.50;43.43;102138.00;5019511;28;45351;-59
2022/04/16 05:12:01;;;;;;;;;18.00;16.25;;;;;14.47;43.26;102138.91;5019654;28;47496;-59
2022/04/16 05:14:27;;;;;;;;;22.00;20.25;;;;;14.43;43.58;102146.00;5017941;28;45290;-57
2022/04/16 05:16:52;;;;;;;;;63.25;51.00;;;;;14.42;43.33;102146.88;5019869;28;45415;-60
2022/04/16 05:19:17;;;;;;;;;31.25;29.75;;;;;14.41;43.17;102146.91;5018118;28;45462;-61
2022/04/16 05:21:43;;;;;;;;;35.50;33.25;;;;;14.38;43.50;102153.09;5019542;28;46080;-58
2022/04/16 05:24:09;;;;;;;;;20.25;18.25;;;;;14.38;43.30;102153.09;5019227;28;45415;-60
2022/04/16 05:26:37;;;;;;;;;32.25;25.75;;;;;14.37;43.29;102159.25;5019887;28;45398;-59
2022/04/16 05:29:02;;;;;;;;;24.75;21.50;;;;;14.32;43.70;102154.91;5016517;28;45385;-57
2022/04/16 05:31:29;;;;;;;;;26.75;24.25;;;;;14.33;43.51;102154.03;4999705;28;45294;-60
2022/04/16 05:36:39;;;;;;;;;23.50;21.75;;;;;14.29;43.45;102164.59;5000989;28;45282;-57
2022/04/16 05:39:05;;;;;;;;;26.75;22.25;;;;;14.27;43.71;102163.72;5001473;28;45327;-57
2022/04/16 05:41:33;;;;;;;;;20.25;18.50;;;;;14.27;43.83;102169.00;5008981;28;45429;-57
2022/04/16 05:43:58;;;;;;;;;20.50;18.00;;;;;14.26;43.65;102175.22;5014460;28;45483;-57
2022/04/16 05:46:24;;;;;;;;;22.25;17.75;;;;;14.25;43.45;102173.47;5010793;28;45306;-57
2022/04/16 05:48:49;;;;;;;;;23.00;20.00;;;;;14.22;43.58;102170.81;5014378;28;45463;-57
2022/04/16 05:51:14;;;;;;;;;24.00;18.75;;;;;14.22;44.06;102170.81;5010560;28;45289;-57
2022/04/16 05:53:40;;;;;;;;;22.75;20.00;;;;;14.20;43.86;102180.53;5014649;28;45375;-58
2022/04/16 05:56:06;;;;;;;;;22.00;18.75;;;;;14.19;43.67;102185.81;4999514;28;45210;-59
2022/04/16 05:58:31;;;;;;;;;24.25;19.25;;;;;14.18;43.94;102189.38;5010981;28;45382;-59
2022/04/16 06:00:57;;;;;;;;;21.50;19.25;;;;;14.17;44.04;102193.75;5010337;28;45948;-56
2022/04/16 06:03:23;;;;;;;;;22.75;19.50;;;;;14.18;43.65;102197.31;5001003;28;45451;-58
2022/04/16 06:05:49;;;;;;;;;25.25;21.00;;;;;14.17;43.93;102192.91;4999566;28;45214;-58
2022/04/16 06:08:14;;;;;;;;;23.75;20.75;;;;;14.16;44.15;102191.13;4999982;28;45330;-58
2022/04/16 06:10:40;;;;;;;;;22.75;20.75;;;;;14.15;44.23;102192.91;5002725;28;45239;-58
2022/04/16 06:13:05;;;;;;;;;27.75;22.00;;;;;14.17;44.17;102198.19;5002354;28;45381;-59
2022/04/16 06:15:32;;;;;;;;;24.00;22.75;;;;;14.14;43.66;102189.38;5002741;28;45335;-62
2022/04/16 06:17:57;;;;;;;;;24.50;21.00;;;;;14.16;43.81;102199.94;5002274;28;45431;-58
2022/04/16 06:20:24;;;;;;;;;17.75;17.25;;;;;14.16;43.73;102210.50;5017570;28;45333;-59
2022/04/16 06:22:49;;;;;;;;;25.50;21.50;;;;;14.16;43.79;102209.66;5003522;28;45325;-59
2022/04/16 06:25:14;;;;;;;;;25.75;21.00;;;;;14.16;43.93;102204.34;5002511;28;45338;-58
2022/04/16 06:27:40;;;;;;;;;19.50;19.00;;;;;14.17;43.95;102211.41;5002075;28;45267;-58
2022/04/16 06:30:08;;;;;;;;;25.50;24.00;;;;;14.16;44.32;102213.16;5003669;28;45576;-58
2022/04/16 06:32:34;;;;;;;;;24.00;22.25;;;;;14.16;44.28;102214.94;5002239;28;45218;-58
2022/04/16 06:35:00;;;;;;;;;22.75;21.75;;;;;14.14;44.00;102215.81;5002526;28;45309;-58
2022/04/16 06:37:25;;;;;;;;;24.25;23.50;;;;;14.17;44.53;102220.19;5006226;28;45437;-58
2022/04/16 06:39:50;;;;;;;;;26.50;21.75;;;;;14.18;44.04;102218.47;5001725;28;46023;-57
2022/04/16 06:42:16;;;;;;;;;22.25;20.00;;;;;14.19;43.95;102221.09;5001927;28;45377;-57
2022/04/16 06:44:41;;;;;;;;;23.25;21.75;;;;;14.20;44.11;102216.66;5002279;28;45301;-58
2022/04/16 06:47:06;;;;;;;;;27.50;22.00;;;;;14.22;44.46;102213.13;5018494;28;45682;-58
2022/04/16 06:49:32;;;;;;;;;27.00;24.00;;;;;14.26;44.40;102216.63;5012049;28;46480;-57
2022/04/16 06:51:57;;;;;;;;;26.75;23.50;;;;;14.27;44.60;102213.09;5001947;28;45321;-58
2022/04/16 06:54:22;;;;;;;;;24.00;22.75;;;;;14.29;44.53;102213.97;5002171;28;45271;-60
2022/04/16 06:56:48;;;;;;;;;24.00;22.50;;;;;14.28;44.16;102209.56;5002011;28;45330;-57
2022/04/16 06:59:14;;;;;;;;;18.75;16.50;;;;;14.30;44.38;102206.03;5001633;28;45273;-56
2022/04/16 07:01:39;;;;;;;;;22.75;21.75;;;;;14.36;44.00;102210.38;5001757;28;45387;-53
2022/04/16 07:04:04;;;;;;;;;23.75;23.50;;;;;14.39;44.46;102212.13;5001868;28;45251;-56
2022/04/16 07:06:30;;;;;;;;;28.75;23.75;;;;;14.40;44.63;102201.56;5018089;28;45274;-53
2022/04/16 07:08:55;;;;;;;;;25.25;22.50;;;;;14.41;44.46;102208.59;5021587;28;45384;-53
2022/04/16 07:11:20;;;;;;;;;25.25;22.25;;;;;14.42;44.13;102197.13;5019962;28;45250;-56
2022/04/16 07:13:46;;;;;;;;;30.50;28.50;;;;;14.48;44.11;102196.22;5019910;28;45205;-58
2022/04/16 07:16:11;;;;;;;;;26.75;24.25;;;;;14.51;44.39;102200.59;5018712;28;45469;-58
2022/04/16 07:18:36;;;;;;;;;23.25;22.75;;;;;14.54;44.59;102200.56;5019923;28;45247;-57
2022/04/16 07:21:02;;;;;;;;;24.75;22.50;;;;;14.58;44.58;102200.53;5014944;28;45992;-57
2022/04/16 07:23:27;;;;;;;;;33.00;26.25;;;;;14.62;44.19;102206.69;5011392;28;45211;-51
2022/04/16 07:25:53;;;;;;;;;29.25;25.50;;;;;14.65;44.60;102200.53;5021118;28;45143;-51
2022/04/16 07:28:21;;;;;;;;;22.50;21.50;;;;;14.70;44.13;102211.94;5020907;28;45827;-57
2022/04/16 07:30:51;;;;;;;;;25.75;24.50;;;;;14.75;44.09;102210.13;5018019;28;45372;-57
2022/04/16 07:33:17;;;;;;;;;23.25;23.25;;;;;14.78;44.61;102197.75;5010649;28;45198;-58
2022/04/16 07:35:43;;;;;;;;;22.25;21.00;;;;;14.80;44.07;102189.81;5004978;28;45266;-58
2022/04/16 07:38:08;;;;;;;;;27.75;23.25;;;;;14.88;44.37;102195.03;5005058;28;46243;-57
2022/04/16 07:40:34;;;;;;;;;23.25;20.50;;;;;14.93;44.22;102204.69;4999836;28;45722;-56
2022/04/16 07:43:03;;;;;;;;;22.50;20.75;;;;;14.98;44.61;102204.66;4999889;28;45323;-60
2022/04/16 07:45:29;;;;;;;;;20.75;20.00;;;;;15.01;44.40;102204.63;5000994;28;45577;-60
2022/04/16 07:47:54;;;;;;;;;20.25;19.75;;;;;15.08;43.95;102205.44;4999540;28;46491;-58
2022/04/16 07:50:20;;;;;;;;;23.50;20.50;;;;;15.14;44.29;102213.31;5001142;28;45286;-52
2022/04/16 07:52:47;;;;;;;;;21.50;20.00;;;;;15.18;44.53;102220.34;5001379;28;45179;-56
2022/04/16 07:55:13;;;;;;;;;25.50;25.00;;;;;15.22;44.53;102219.41;5015542;28;45587;-55
2022/04/16 07:57:39;;;;;;;;;16.50;15.25;;;;;15.26;44.51;102221.13;5011384;28;46666;-55
2022/04/16 08:00:09;;;;;;;;;22.50;21.25;;;;;15.31;44.62;102215.81;5003447;28;45424;-52
2022/04/16 08:02:35;;;;;;;;;20.75;19.50;;;;;15.36;44.64;102221.06;5001062;28;45597;-58
2022/04/16 08:05:00;;;;;;;;;24.75;20.25;;;;;15.41;44.28;102216.59;5000863;28;45269;-55
2022/04/16 08:07:26;;;;;;;;;23.25;19.75;;;;;15.47;43.89;102218.28;5000783;28;45254;-66
2022/04/16 08:09:52;;;;;;;;;24.25;20.00;;;;;15.52;43.98;102222.66;5000627;28;45266;-58
2022/04/16 08:12:17;;;;;;;;;20.75;19.75;;;;;15.58;44.47;102222.56;5000760;28;45451;-61
2022/04/16 08:14:42;;;;;;;;;21.50;19.00;;;;;15.64;43.92;102234.00;5017858;28;46159;-58
2022/04/16 08:17:08;;;;;;;;;20.50;18.00;;;;;15.70;44.19;102231.28;5008762;28;46002;-46
2022/04/16 08:19:33;;;;;;;;;17.75;16.75;;;;;15.76;44.37;102231.19;5009032;28;45170;-56
2022/04/16 08:21:59;;;;;;;;;22.75;21.00;;;;;15.79;44.29;102220.53;5019309;28;45267;-54
2022/04/16 08:26:56;;;;;;;;;18.50;16.75;;;;;15.90;44.36;102229.28;5013048;28;46033;-55
2022/04/16 08:29:22;;;;;;;;;19.00;16.75;;;;;15.99;44.28;102228.28;5013778;28;45309;-58
2022/04/16 08:31:49;;;;;;;;;23.25;20.75;;;;;16.06;43.81;102239.66;4999606;28;45309;-53
2022/04/16 08:34:14;;;;;;;;;19.75;19.25;;;;;16.14;44.03;102236.91;5012369;28;45662;-57
2022/04/16 08:36:40;;;;;;;;;19.75;18.00;;;;;16.17;44.17;102237.75;5016548;28;46382;-57
2022/04/16 08:39:06;;;;;;;;;19.00;17.00;;;;;16.25;43.85;102251.78;5003056;28;45332;-56
2022/04/16 08:41:32;;;;;;;;;11.00;7.75;;;;;16.30;44.17;102243.78;5000543;28;45349;-58
2022/04/16 08:43:58;;;;;;;;;15.50;15.50;;;;;16.36;43.90;102242.78;4998735;28;45338;-58
2022/04/16 08:46:26;;;;;;;;;12.50;12.25;;;;;16.44;44.03;102240.91;5009672;28;47023;-60
2022/04/16 08:48:53;;;;;;;;;17.50;15.50;;;;;16.51;43.91;102241.69;5015436;28;45421;-52
2022/04/16 08:51:20;;;;;;;;;17.50;14.75;;;;;16.56;43.97;102247.81;4998909;28;45366;-50
2022/04/16 08:53:45;;;;;;;;;16.50;15.50;;;;;16.65;43.56;102245.00;4999960;28;45228;-59
2022/04/16 08:56:11;;;;;;;;;18.00;16.75;;;;;16.74;44.00;102251.94;5015127;28;46803;-58
2022/04/16 08:58:38;;;;;;;;;19.75;16.25;;;;;16.81;44.07;102250.94;4999607;28;45357;-57
2022/04/16 09:01:04;;;;;;;;;22.25;20.25;;;;;16.89;43.67;102245.50;5000355;28;45360;-57
2022/04/16 09:03:34;;;;;;;;;13.75;11.50;;;;;16.94;43.51;102243.69;4999765;28;45419;-50
2022/04/16 09:05:59;;;;;;;;;19.75;17.00;;;;;17.05;43.46;102260.31;5010691;28;46754;-56
2022/04/16 09:08:31;;;;;;;;;17.75;16.50;;;;;17.14;43.85;102259.25;5000664;28;45386;-55
2022/04/16 09:11:12;;;;;;;;;16.25;15.25;;;;;17.21;43.72;102242.31;5000060;28;45346;-58
2022/04/16 09:13:50;;;;;;;;;16.25;15.00;;;;;17.32;43.67;102247.44;5008199;28;45313;-53
2022/04/16 09:16:17;;;;;;;;;19.75;17.50;;;;;17.43;43.75;102241.06;5002634;28;46621;-54
2022/04/16 09:18:52;;;;;;;;;16.00;16.00;;;;;17.53;43.61;102234.66;5001199;28;45447;-61
2022/04/16 09:21:19;;;;;;;;;12.25;12.25;;;;;17.63;43.35;102243.31;5014606;28;45187;-65
2022/04/16 09:23:47;;;;;;;;;12.50;11.00;;;;;17.73;43.53;102239.56;4999539;28;45495;-60
2022/04/16 09:26:24;;;;;;;;;15.00;13.25;;;;;17.85;43.67;102241.09;4999277;28;46370;-59
2022/04/16 09:28:50;;;;;;;;;20.25;18.50;;;;;17.95;43.47;102240.03;5010693;28;45593;-58
2022/04/16 09:31:16;;;;;;;;;20.00;15.75;;;;;18.06;43.19;102233.59;5005469;28;45491;-57
2022/04/16 09:33:42;;;;;;;;;15.50;15.50;;;;;18.17;43.42;102231.56;5011927;28;45835;-57
2022/04/16 09:36:07;;;;;;;;;15.50;13.25;;;;;18.29;43.23;102233.97;5012911;28;45344;-59
2022/04/16 09:38:36;;;;;;;;;16.50;15.75;;;;;18.40;43.26;102223.06;5003137;28;45483;-58
2022/04/16 09:41:08;;;;;;;;;17.75;14.75;;;;;18.51;43.28;102228.13;5019183;28;45403;-52
2022/04/16 09:43:35;;;;;;;;;17.00;15.25;;;;;18.66;42.82;102234.88;5006285;28;45464;-53
2022/04/16 09:46:12;;;;;;;;;10.25;9.25;;;;;18.80;43.04;102222.09;5002915;28;46258;-55
2022/04/16 09:48:38;;;;;;;;;13.75;11.50;;;;;18.91;42.74;102227.16;5001289;28;45411;-58
2022/04/16 09:51:07;;;;;;;;;16.75;14.00;;;;;19.03;42.97;102218.00;5011103;28;45382;-57
2022/04/16 09:53:36;;;;;;;;;13.50;10.50;;;;;19.16;42.69;102210.56;5019142;28;45564;-58
2022/04/16 09:56:02;;;;;;;;;19.00;17.50;;;;;19.27;42.57;102207.56;5002567;28;45428;-58
2022/04/16 09:58:37;;;;;;;;;12.50;12.00;;;;;19.40;42.38;102219.66;5002506;28;45287;-58
2022/04/16 10:01:03;;;;;;;;;16.25;11.75;;;;;19.47;42.55;102204.34;5002916;28;45321;-57
2022/04/16 10:03:29;;;;;;;;;17.75;15.00;;;;;19.62;42.19;102211.94;5002272;28;45517;-57
2022/04/16 10:05:59;;;;;;;;;22.50;18.25;;;;;19.76;42.51;102213.28;5002510;28;47155;-58
2022/04/16 10:08:25;;;;;;;;;13.00;11.00;;;;;19.89;42.28;102214.72;5002176;28;45263;-58
2022/04/16 10:10:55;;;;;;;;;17.25;16.25;;;;;20.00;42.10;102211.75;5001045;28;45327;-58
2022/04/16 10:13:22;;;;;;;;;17.00;17.00;;;;;20.14;42.21;102209.50;5002156;28;45393;-58
2022/04/16 10:16:07;;;;;;;;;14.00;11.25;;;;;20.26;41.98;102218.94;5002291;28;47267;-58
2022/04/16 10:18:35;;;;;;;;;16.25;12.75;;;;;20.40;41.87;102223.84;5017766;28;45493;-58
2022/04/16 10:21:02;;;;;;;;;10.75;10.75;;;;;20.54;41.82;102227.84;5004561;28;45275;-58
2022/04/16 10:23:38;;;;;;;;;12.25;12.25;;;;;20.68;41.35;102227.38;5022285;28;45427;-58
2022/04/16 10:26:09;;;;;;;;;14.00;13.00;;;;;20.74;41.91;102214.75;5015416;28;47704;-58
2022/04/16 10:28:52;;;;;;;;;15.25;15.25;;;;;20.94;41.16;102222.06;5014295;28;45451;-58
2022/04/16 10:31:20;;;;;;;;;15.50;13.50;;;;;21.08;41.26;102223.38;5007127;28;45339;-58
2022/04/16 10:34:11;;;;;;;;;14.50;14.50;;;;;21.19;41.33;102221.19;5015254;28;46022;-58
2022/04/16 10:36:52;;;;;;;;;11.25;9.00;;;;;21.34;41.09;102227.78;5003139;28;45937;-57
2022/04/16 10:39:31;;;;;;;;;8.25;7.25;;;;;21.48;40.65;102216.59;5002636;28;45476;-57
2022/04/16 10:42:04;;;;;;;;;7.50;7.50;;;;;21.66;40.32;102219.53;5002022;28;45230;-57
2022/04/16 10:44:50;;;;;;;;;15.25;8.25;;;;;21.85;40.82;102209.03;5001878;28;45557;-58
2022/04/16 10:47:17;;;;;;;;;13.00;11.50;;;;;22.06;40.56;102218.91;5001529;28;45290;-52
2022/04/16 10:52:23;;;;;;;;;12.00;10.75;;;;;22.60;40.22;102218.53;5709341;22;46611;-60
2022/04/16 10:55:01;;;;;;;;;14.50;14.50;;;;;22.98;40.35;102216.06;4978428;28;45381;-60
2022/04/16 11:02:36;;;;;;;;;11.00;9.50;;;;;24.32;39.41;102209.06;5345174;22;45368;-58
2022/04/16 11:05:06;;;;;;;;;11.00;10.75;;;;;24.84;39.40;102199.34;5006087;28;45621;-56
2022/04/16 11:07:35;;;;;;;;;8.25;8.00;;;;;25.35;39.39;102195.81;5009435;28;46172;-56
2022/04/16 11:10:01;;;;;;;;;12.75;9.50;;;;;25.85;39.42;102186.78;5007109;28;45503;-58
2022/04/16 11:12:27;;;;;;;;;10.75;8.50;;;;;26.36;39.16;102185.75;5008613;28;45436;-59
2022/04/16 11:14:54;;;;;;;;;8.75;8.00;;;;;26.89;38.38;102189.78;5001452;28;45403;-58
2022/04/16 11:17:19;;;;;;;;;10.25;10.25;;;;;27.40;38.09;102193.91;5001545;28;46186;-59
2022/04/16 11:20:05;;;;;;;;;11.25;10.00;;;;;27.85;38.22;102194.63;4997242;28;45973;-62
2022/04/16 11:22:30;;;;;;;;;12.25;8.00;;;;;28.25;37.38;102195.69;5003429;28;45472;-61
2022/04/16 11:24:59;;;;;;;;;8.25;5.00;;;;;28.47;36.87;102204.09;5007601;28;45738;-62
2022/04/16 11:40:32;;;;;;;;;7.00;7.00;;;;;29.28;35.95;102177.88;5028753;22;45521;-60
2022/04/16 11:42:58;;;;;;;;;4.25;4.25;;;;;29.70;35.40;102199.22;4981525;28;45487;-63
2022/04/16 11:45:24;;;;;;;;;4.50;4.50;;;;;30.18;35.07;102203.00;4981455;28;45426;-71
2022/04/16 11:47:49;;;;;;;;;4.00;4.00;;;;;30.66;35.04;102202.13;4981261;28;45523;-66
2022/04/16 11:50:16;;;;;;;;;3.75;3.75;;;;;31.21;34.43;102199.69;4964527;28;45308;-60